Time;durP1;ratioP1;P1;durP2;ratioP2;P2;SDS_P1;SDS_P2;PMS_P1;PMS_P2;Temp;Humidity;BMP_temperature;BMP_pressure;BME280_temperature;BME280_humidity;BME280_pressure;Samples;Min_cycle;Max_cycle;Signal;HPM_P1;HPM_P2
2022/06/30 00:02:22;;;;;;;1999.90;999.90;;;;;;;;;;5151942;27;21362;-73
2022/06/30 00:04:51;;;;;;;1999.90;999.90;;;;;;;;;;5152636;27;22489;-71
2022/06/30 00:07:19;;;;;;;1999.90;999.90;;;;;;;;;;5151777;27;20382;-71
2022/06/30 00:09:47;;;;;;;1999.90;999.90;;;;;;;;;;5152822;27;20410;-71
2022/06/30 00:12:14;;;;;;;1999.90;999.90;;;;;;;;;;5157408;27;20441;-71
2022/06/30 00:14:42;;;;;;;1999.90;999.90;;;;;;;;;;5160876;27;20867;-72
2022/06/30 00:17:10;;;;;;;1999.90;999.90;;;;;;;;;;5151642;27;20394;-72
2022/06/30 00:19:38;;;;;;;1999.90;999.90;;;;;;;;;;5155609;27;21281;-73
2022/06/30 00:22:07;;;;;;;1999.90;999.90;;;;;;;;;;5151346;27;20462;-72
2022/06/30 00:24:35;;;;;;;1999.90;999.90;;;;;;;;;;5160199;27;20433;-72
2022/06/30 00:27:03;;;;;;;1999.90;999.90;;;;;;;;;;5159481;27;20406;-72
2022/06/30 00:29:31;;;;;;;1999.90;999.90;;;;;;;;;;5143332;27;20493;-74
2022/06/30 00:31:59;;;;;;;1999.90;999.90;;;;;;;;;;5161093;27;21344;-73
2022/06/30 00:34:27;;;;;;;1999.90;999.90;;;;;;;;;;5160676;27;20398;-72
2022/06/30 00:36:55;;;;;;;1999.90;999.90;;;;;;;;;;5157709;22;20416;-71
2022/06/30 00:39:24;;;;;;;1999.90;999.90;;;;;;;;;;5081633;27;20401;-69
2022/06/30 00:41:52;;;;;;;1999.90;999.90;;;;;;;;;;5097366;27;20680;-69
2022/06/30 00:44:19;;;;;;;1999.90;999.90;;;;;;;;;;5090960;27;20396;-69
2022/06/30 00:46:48;;;;;;;1999.90;999.90;;;;;;;;;;5097514;27;20391;-69
2022/06/30 00:49:17;;;;;;;1999.90;999.90;;;;;;;;;;5094850;27;20399;-69
2022/06/30 00:51:45;;;;;;;1999.90;999.90;;;;;;;;;;5092321;27;20387;-69
2022/06/30 00:54:13;;;;;;;1999.90;999.90;;;;;;;;;;5096800;27;21017;-69
2022/06/30 00:56:44;;;;;;;1999.90;999.90;;;;;;;;;;5094754;27;20384;-69
2022/06/30 00:59:13;;;;;;;1999.90;999.90;;;;;;;;;;5079649;27;20415;-69
2022/06/30 01:01:43;;;;;;;1999.90;999.90;;;;;;;;;;5073031;27;20383;-69
2022/06/30 01:04:13;;;;;;;1999.90;999.90;;;;;;;;;;5094950;27;20394;-69
2022/06/30 01:06:43;;;;;;;1999.90;999.90;;;;;;;;;;5092410;27;20826;-69
2022/06/30 01:09:10;;;;;;;1999.90;999.90;;;;;;;;;;5112016;27;20412;-70
2022/06/30 01:14:25;;;;;;;1999.90;999.90;;;;;;;;;;5077406;27;20411;-69
2022/06/30 01:16:53;;;;;;;1999.90;999.90;;;;;;;;;;5093576;27;20387;-69
2022/06/30 01:19:20;;;;;;;1999.90;999.90;;;;;;;;;;5094746;27;20422;-69
2022/06/30 01:22:02;;;;;;;1999.90;999.90;;;;;;;;;;5092369;27;20395;-69
2022/06/30 01:24:30;;;;;;;1999.90;999.90;;;;;;;;;;5092042;27;20388;-69
2022/06/30 01:26:58;;;;;;;1999.90;999.90;;;;;;;;;;5087371;27;20486;-69
2022/06/30 01:29:26;;;;;;;1999.90;999.90;;;;;;;;;;5073581;27;21302;-69
2022/06/30 01:31:54;;;;;;;1999.90;999.90;;;;;;;;;;5092778;27;20950;-70
2022/06/30 01:34:22;;;;;;;1999.90;999.90;;;;;;;;;;5086086;27;20407;-69
2022/06/30 01:36:50;;;;;;;1999.90;999.90;;;;;;;;;;5075762;27;20481;-69
2022/06/30 01:39:19;;;;;;;1999.90;999.90;;;;;;;;;;5014959;27;20413;-69
2022/06/30 01:41:46;;;;;;;1999.90;999.90;;;;;;;;;;5013572;27;20394;-69
2022/06/30 01:44:14;;;;;;;1999.90;999.90;;;;;;;;;;5010756;27;20949;-69
2022/06/30 01:46:45;;;;;;;1999.90;999.90;;;;;;;;;;5010634;27;20414;-69
2022/06/30 01:49:13;;;;;;;1999.90;999.90;;;;;;;;;;5009822;27;20476;-69
2022/06/30 01:51:42;;;;;;;1999.90;999.90;;;;;;;;;;5010257;27;20394;-70
2022/06/30 01:54:09;;;;;;;1999.90;999.90;;;;;;;;;;5014188;27;20437;-69
2022/06/30 01:56:39;;;;;;;1999.90;999.90;;;;;;;;;;5006636;27;20394;-70
2022/06/30 01:59:07;;;;;;;1999.90;999.90;;;;;;;;;;5009355;27;21676;-70
2022/06/30 02:01:35;;;;;;;1999.90;999.90;;;;;;;;;;4993847;28;21206;-70
2022/06/30 02:06:46;;;;;;;1999.90;999.90;;;;;;;;;;5007819;27;20530;-70
2022/06/30 02:09:13;;;;;;;1999.90;999.90;;;;;;;;;;5011251;27;20418;-70
2022/06/30 02:11:43;;;;;;;1999.90;999.90;;;;;;;;;;4990379;28;20477;-69
2022/06/30 02:14:10;;;;;;;1999.90;999.90;;;;;;;;;;5009846;27;20387;-70
2022/06/30 02:16:38;;;;;;;1999.90;999.90;;;;;;;;;;5006368;27;20414;-70
2022/06/30 02:19:06;;;;;;;1999.90;999.90;;;;;;;;;;5012753;27;20409;-70
2022/06/30 02:21:34;;;;;;;1999.90;999.90;;;;;;;;;;5013106;27;20932;-69
2022/06/30 02:24:01;;;;;;;1999.90;999.90;;;;;;;;;;4990524;27;20391;-69
2022/06/30 02:26:29;;;;;;;1999.90;999.90;;;;;;;;;;5002870;27;21509;-70
2022/06/30 02:28:58;;;;;;;1999.90;999.90;;;;;;;;;;5006186;27;21318;-69
2022/06/30 02:31:26;;;;;;;1999.90;999.90;;;;;;;;;;5009618;27;20396;-69
2022/06/30 02:33:54;;;;;;;1999.90;999.90;;;;;;;;;;5006312;27;20419;-70
2022/06/30 02:36:22;;;;;;;1999.90;999.90;;;;;;;;;;5011405;27;20398;-70
2022/06/30 02:38:49;;;;;;;1999.90;999.90;;;;;;;;;;5010158;27;20410;-71
2022/06/30 02:41:17;;;;;;;1999.90;999.90;;;;;;;;;;5010138;27;20414;-70
2022/06/30 02:43:48;;;;;;;1999.90;999.90;;;;;;;;;;5008311;27;20824;-70
2022/06/30 02:46:17;;;;;;;1999.90;999.90;;;;;;;;;;4991451;27;20418;-71
2022/06/30 02:48:45;;;;;;;1999.90;999.90;;;;;;;;;;5006749;27;20434;-71
2022/06/30 02:51:13;;;;;;;1999.90;999.90;;;;;;;;;;5009008;27;20394;-71
2022/06/30 02:53:40;;;;;;;1999.90;999.90;;;;;;;;;;5011424;27;21311;-70
2022/06/30 02:56:08;;;;;;;1999.90;999.90;;;;;;;;;;5010295;27;20968;-69
2022/06/30 02:58:39;;;;;;;1999.90;999.90;;;;;;;;;;5012399;27;20495;-71
2022/06/30 03:01:07;;;;;;;1999.90;999.90;;;;;;;;;;5013899;27;20836;-71
2022/06/30 03:03:36;;;;;;;1999.90;999.90;;;;;;;;;;5004134;27;21793;-70
2022/06/30 03:06:04;;;;;;;1999.90;999.90;;;;;;;;;;4993364;27;20394;-69
2022/06/30 03:08:31;;;;;;;1999.90;999.90;;;;;;;;;;5024742;27;20413;-69
2022/06/30 03:10:59;;;;;;;1999.90;999.90;;;;;;;;;;5010650;27;20541;-70
2022/06/30 03:13:27;;;;;;;1999.90;999.90;;;;;;;;;;5007895;27;20410;-70
2022/06/30 03:15:55;;;;;;;1999.90;999.90;;;;;;;;;;5010029;27;21433;-70
2022/06/30 03:18:23;;;;;;;1999.90;999.90;;;;;;;;;;5004990;27;20420;-70
2022/06/30 03:20:52;;;;;;;1999.90;999.90;;;;;;;;;;5003089;27;20402;-70
2022/06/30 03:23:20;;;;;;;1999.90;999.90;;;;;;;;;;5006123;27;20424;-70
2022/06/30 03:25:47;;;;;;;1999.90;999.90;;;;;;;;;;5003664;27;20402;-70
2022/06/30 03:28:16;;;;;;;1999.90;999.90;;;;;;;;;;5012955;27;20520;-70
2022/06/30 03:30:45;;;;;;;1999.90;999.90;;;;;;;;;;5007217;27;20392;-70
2022/06/30 03:33:13;;;;;;;1999.90;999.90;;;;;;;;;;5005410;27;20529;-70
2022/06/30 03:35:41;;;;;;;1999.90;999.90;;;;;;;;;;5005027;27;22622;-70
2022/06/30 03:38:10;;;;;;;1999.90;999.90;;;;;;;;;;5022859;27;20441;-70
2022/06/30 03:40:38;;;;;;;1999.90;999.90;;;;;;;;;;5010096;27;20406;-70
2022/06/30 03:43:06;;;;;;;1999.90;999.90;;;;;;;;;;5007881;27;20469;-70
2022/06/30 03:45:35;;;;;;;1999.90;999.90;;;;;;;;;;5011587;27;20933;-70
2022/06/30 03:48:04;;;;;;;1999.90;999.90;;;;;;;;;;5015595;27;20425;-73
2022/06/30 03:50:32;;;;;;;1999.90;999.90;;;;;;;;;;5005069;27;20392;-70
2022/06/30 03:53:00;;;;;;;1999.90;999.90;;;;;;;;;;5015639;27;20747;-70
2022/06/30 03:55:30;;;;;;;1999.90;999.90;;;;;;;;;;5016758;27;20400;-67
2022/06/30 03:57:58;;;;;;;1999.90;999.90;;;;;;;;;;5009881;27;20477;-68
2022/06/30 04:00:26;;;;;;;1999.90;999.90;;;;;;;;;;4992432;27;20404;-66
2022/06/30 04:02:53;;;;;;;1999.90;999.90;;;;;;;;;;4985362;28;20402;-67
2022/06/30 04:05:21;;;;;;;1999.90;999.90;;;;;;;;;;5015441;27;20382;-68
2022/06/30 04:07:49;;;;;;;1999.90;999.90;;;;;;;;;;5009392;27;20468;-68
2022/06/30 04:10:18;;;;;;;1999.90;999.90;;;;;;;;;;4990991;27;20408;-68
2022/06/30 04:12:47;;;;;;;1999.90;999.90;;;;;;;;;;5009063;27;20417;-67
2022/06/30 04:15:15;;;;;;;1999.90;999.90;;;;;;;;;;5012353;27;20465;-67
2022/06/30 04:17:42;;;;;;;1999.90;999.90;;;;;;;;;;5010086;27;20407;-68
2022/06/30 04:20:15;;;;;;;1999.90;999.90;;;;;;;;;;5013570;27;20390;-68
2022/06/30 04:22:44;;;;;;;1999.90;999.90;;;;;;;;;;5009928;27;20616;-68
2022/06/30 04:25:13;;;;;;;1999.90;999.90;;;;;;;;;;5017173;27;20481;-68
2022/06/30 04:27:41;;;;;;;1999.90;999.90;;;;;;;;;;5008849;27;20940;-68
2022/06/30 04:30:11;;;;;;;1999.90;999.90;;;;;;;;;;4995328;27;20417;-68
2022/06/30 04:32:41;;;;;;;1999.90;999.90;;;;;;;;;;5013108;27;20432;-68
2022/06/30 04:35:11;;;;;;;1999.90;999.90;;;;;;;;;;5015854;27;20414;-67
2022/06/30 04:37:38;;;;;;;1999.90;999.90;;;;;;;;;;4990199;28;20464;-67
2022/06/30 04:42:52;;;;;;;1999.90;999.90;;;;;;;;;;5012323;27;20411;-71
2022/06/30 04:45:22;;;;;;;1999.90;999.90;;;;;;;;;;5001384;27;20531;-71
2022/06/30 04:47:49;;;;;;;1999.90;999.90;;;;;;;;;;5007474;27;20398;-71
2022/06/30 04:50:17;;;;;;;1999.90;999.90;;;;;;;;;;4994382;27;20398;-71
2022/06/30 04:52:45;;;;;;;1999.90;999.90;;;;;;;;;;5002912;27;20646;-71
2022/06/30 04:55:13;;;;;;;1999.90;999.90;;;;;;;;;;5005291;27;21304;-71
2022/06/30 04:57:40;;;;;;;1999.90;999.90;;;;;;;;;;5010924;27;20490;-71
2022/06/30 05:00:09;;;;;;;1999.90;999.90;;;;;;;;;;5001041;27;20402;-71
2022/06/30 05:02:38;;;;;;;1999.90;999.90;;;;;;;;;;5010747;27;20640;-71
2022/06/30 05:05:06;;;;;;;1999.90;999.90;;;;;;;;;;5006983;27;20433;-71
2022/06/30 05:07:34;;;;;;;1999.90;999.90;;;;;;;;;;5002318;27;20406;-71
2022/06/30 05:10:02;;;;;;;1999.90;999.90;;;;;;;;;;5003639;27;20475;-71
2022/06/30 05:12:30;;;;;;;1999.90;999.90;;;;;;;;;;5011562;27;21356;-71
2022/06/30 05:14:59;;;;;;;1999.90;999.90;;;;;;;;;;5013164;27;20394;-71
2022/06/30 05:17:26;;;;;;;1999.90;999.90;;;;;;;;;;5011692;27;20402;-71
2022/06/30 05:19:55;;;;;;;1999.90;999.90;;;;;;;;;;5015647;27;20402;-71
2022/06/30 05:22:23;;;;;;;1999.90;999.90;;;;;;;;;;5012875;27;20461;-72
2022/06/30 05:27:37;;;;;;;1999.90;999.90;;;;;;;;;;5015725;27;21084;-73
2022/06/30 05:30:05;;;;;;;1999.90;999.90;;;;;;;;;;5016673;27;20483;-73
2022/06/30 05:32:34;;;;;;;1999.90;999.90;;;;;;;;;;5015915;27;20482;-73
2022/06/30 05:35:04;;;;;;;1999.90;999.90;;;;;;;;;;5016327;27;20395;-73
2022/06/30 05:37:31;;;;;;;1999.90;999.90;;;;;;;;;;5016595;27;20402;-73
2022/06/30 05:39:59;;;;;;;1999.90;999.90;;;;;;;;;;5000053;27;20409;-74
2022/06/30 05:42:27;;;;;;;1999.90;999.90;;;;;;;;;;5016699;27;20403;-73
2022/06/30 05:44:55;;;;;;;1999.90;999.90;;;;;;;;;;5014633;27;21319;-73
2022/06/30 05:47:23;;;;;;;1999.90;999.90;;;;;;;;;;5015100;27;20410;-73
2022/06/30 05:49:50;;;;;;;1999.90;999.90;;;;;;;;;;5016495;27;20922;-74
2022/06/30 05:52:19;;;;;;;1999.90;999.90;;;;;;;;;;5014400;27;20911;-73
2022/06/30 05:54:47;;;;;;;1999.90;999.90;;;;;;;;;;4998625;28;20406;-73
2022/06/30 05:57:15;;;;;;;1999.90;999.90;;;;;;;;;;5014740;27;20418;-73
2022/06/30 05:59:43;;;;;;;1999.90;999.90;;;;;;;;;;5016726;27;21003;-74
2022/06/30 06:02:11;;;;;;;1999.90;999.90;;;;;;;;;;5013769;27;20923;-73
2022/06/30 06:04:39;;;;;;;1999.90;999.90;;;;;;;;;;5014241;27;20409;-73
2022/06/30 06:07:06;;;;;;;1999.90;999.90;;;;;;;;;;5005581;27;20421;-73
2022/06/30 06:09:35;;;;;;;1999.90;999.90;;;;;;;;;;5016959;27;20416;-74
2022/06/30 06:12:04;;;;;;;1999.90;999.90;;;;;;;;;;5016221;27;20390;-73
2022/06/30 06:14:31;;;;;;;1999.90;999.90;;;;;;;;;;5016278;27;20391;-73
2022/06/30 06:16:59;;;;;;;1999.90;999.90;;;;;;;;;;5013316;27;22145;-73
2022/06/30 06:19:27;;;;;;;1999.90;999.90;;;;;;;;;;5019090;27;20401;-73
2022/06/30 06:21:55;;;;;;;1999.90;999.90;;;;;;;;;;5017447;27;21818;-73
2022/06/30 06:24:22;;;;;;;1999.90;999.90;;;;;;;;;;5018225;27;20373;-73
2022/06/30 06:26:52;;;;;;;1999.90;999.90;;;;;;;;;;5022411;27;20414;-73
2022/06/30 06:29:21;;;;;;;1999.90;999.90;;;;;;;;;;5022953;27;20414;-73
2022/06/30 06:31:49;;;;;;;1999.90;999.90;;;;;;;;;;5004408;28;20519;-73
2022/06/30 06:34:16;;;;;;;1999.90;999.90;;;;;;;;;;5017474;27;20447;-73
2022/06/30 06:36:45;;;;;;;1999.90;999.90;;;;;;;;;;5017567;27;20414;-74
2022/06/30 06:39:13;;;;;;;1999.90;999.90;;;;;;;;;;5018912;27;20806;-74
2022/06/30 06:41:40;;;;;;;1999.90;999.90;;;;;;;;;;5017212;27;20400;-72
2022/06/30 06:44:10;;;;;;;1999.90;999.90;;;;;;;;;;5008821;27;20416;-72
2022/06/30 06:46:37;;;;;;;1999.90;999.90;;;;;;;;;;5056304;22;20419;-74
2022/06/30 06:49:06;;;;;;;1999.90;999.90;;;;;;;;;;5056033;27;21845;-74
2022/06/30 06:51:35;;;;;;;1999.90;999.90;;;;;;;;;;5054420;27;20458;-74
2022/06/30 06:54:03;;;;;;;1999.90;999.90;;;;;;;;;;5054487;27;20862;-73
2022/06/30 06:56:30;;;;;;;1999.90;999.90;;;;;;;;;;5059566;27;21939;-74
2022/06/30 06:59:00;;;;;;;1999.90;999.90;;;;;;;;;;5059361;27;20909;-75
2022/06/30 07:01:30;;;;;;;1999.90;999.90;;;;;;;;;;5081025;27;20397;-75
2022/06/30 07:03:58;;;;;;;1999.90;999.90;;;;;;;;;;5057913;27;20387;-74
2022/06/30 07:06:26;;;;;;;1999.90;999.90;;;;;;;;;;5061547;27;20411;-76
2022/06/30 07:08:54;;;;;;;1999.90;999.90;;;;;;;;;;5041382;27;20391;-74
2022/06/30 07:11:22;;;;;;;1999.90;999.90;;;;;;;;;;5079813;27;20391;-74
2022/06/30 07:13:49;;;;;;;1999.90;999.90;;;;;;;;;;5053754;27;20393;-74
2022/06/30 07:16:17;;;;;;;1999.90;999.90;;;;;;;;;;5064531;27;21072;-75
2022/06/30 07:18:46;;;;;;;1999.90;999.90;;;;;;;;;;5066669;27;20399;-74
2022/06/30 07:21:15;;;;;;;1999.90;999.90;;;;;;;;;;5061076;27;20387;-77
2022/06/30 07:23:43;;;;;;;1999.90;999.90;;;;;;;;;;5054363;27;20402;-75
2022/06/30 07:26:12;;;;;;;1999.90;999.90;;;;;;;;;;5061044;27;20490;-73
2022/06/30 07:28:40;;;;;;;1999.90;999.90;;;;;;;;;;5067338;28;20431;-75
2022/06/30 07:31:20;;;;;;;1999.90;999.90;;;;;;;;;;5060917;27;20425;-74
2022/06/30 07:33:50;;;;;;;1999.90;999.90;;;;;;;;;;5039765;28;20391;-75
2022/06/30 07:36:18;;;;;;;1999.90;999.90;;;;;;;;;;5065332;27;20930;-74
2022/06/30 07:38:47;;;;;;;1999.90;999.90;;;;;;;;;;5061826;27;20386;-74
2022/06/30 07:41:14;;;;;;;1999.90;999.90;;;;;;;;;;5062735;27;20417;-76
2022/06/30 07:43:42;;;;;;;1999.90;999.90;;;;;;;;;;5059835;27;20421;-74
2022/06/30 07:46:10;;;;;;;1999.90;999.90;;;;;;;;;;5064553;27;20453;-74
2022/06/30 07:48:38;;;;;;;1999.90;999.90;;;;;;;;;;5064817;28;20385;-74
2022/06/30 07:51:07;;;;;;;1999.90;999.90;;;;;;;;;;5064827;27;20953;-73
2022/06/30 07:53:35;;;;;;;1999.90;999.90;;;;;;;;;;5060002;27;20391;-75
2022/06/30 07:56:03;;;;;;;1999.90;999.90;;;;;;;;;;5045512;27;20414;-73
2022/06/30 07:58:31;;;;;;;1999.90;999.90;;;;;;;;;;5059471;28;20405;-77
2022/06/30 08:00:59;;;;;;;1999.90;999.90;;;;;;;;;;5065188;27;20767;-75
2022/06/30 08:03:27;;;;;;;1999.90;999.90;;;;;;;;;;5057996;27;20460;-74
2022/06/30 08:05:55;;;;;;;1999.90;999.90;;;;;;;;;;5041401;28;20437;-74
2022/06/30 08:08:24;;;;;;;1999.90;999.90;;;;;;;;;;5044549;27;20417;-74
2022/06/30 08:10:52;;;;;;;1999.90;999.90;;;;;;;;;;5063601;27;20385;-75
2022/06/30 08:13:23;;;;;;;1999.90;999.90;;;;;;;;;;5055060;27;20391;-74
2022/06/30 08:15:51;;;;;;;1999.90;999.90;;;;;;;;;;5060577;27;20418;-72
2022/06/30 08:18:19;;;;;;;1999.90;999.90;;;;;;;;;;5057626;27;20425;-74
2022/06/30 08:20:46;;;;;;;1999.90;999.90;;;;;;;;;;5063416;27;20390;-73
2022/06/30 08:23:14;;;;;;;1999.90;999.90;;;;;;;;;;5057689;27;20415;-78
2022/06/30 08:25:43;;;;;;;1999.90;999.90;;;;;;;;;;5062242;27;20527;-78
2022/06/30 08:28:11;;;;;;;1999.90;999.90;;;;;;;;;;5062765;27;20392;-76
2022/06/30 08:30:39;;;;;;;1999.90;999.90;;;;;;;;;;5064699;27;21300;-74
2022/06/30 08:33:07;;;;;;;1999.90;999.90;;;;;;;;;;5062629;27;20387;-78
2022/06/30 08:35:34;;;;;;;1999.90;999.90;;;;;;;;;;5057442;27;20979;-73
2022/06/30 08:38:22;;;;;;;1999.90;999.90;;;;;;;;;;5062781;27;20439;-77
2022/06/30 08:43:37;;;;;;;1999.90;999.90;;;;;;;;;;5061283;27;20399;-72
2022/06/30 08:46:06;;;;;;;1999.90;999.90;;;;;;;;;;5058460;27;20418;-75
2022/06/30 08:48:34;;;;;;;1999.90;999.90;;;;;;;;;;5061117;28;20411;-74
2022/06/30 08:51:04;;;;;;;1999.90;999.90;;;;;;;;;;5059235;27;20442;-77
2022/06/30 08:53:40;;;;;;;1999.90;999.90;;;;;;;;;;5057950;27;20856;-74
2022/06/30 08:56:09;;;;;;;1999.90;999.90;;;;;;;;;;5063644;27;21376;-74
2022/06/30 08:58:38;;;;;;;1999.90;999.90;;;;;;;;;;5071891;27;20409;-75
2022/06/30 09:01:06;;;;;;;1999.90;999.90;;;;;;;;;;5065582;27;20399;-74
2022/06/30 09:03:36;;;;;;;1999.90;999.90;;;;;;;;;;5057271;27;20397;-74
2022/06/30 09:06:04;;;;;;;1999.90;999.90;;;;;;;;;;5067941;27;20499;-74
2022/06/30 09:08:33;;;;;;;1999.90;999.90;;;;;;;;;;5067843;27;21029;-74
2022/06/30 09:11:01;;;;;;;1999.90;999.90;;;;;;;;;;5065261;27;20544;-75
2022/06/30 09:13:40;;;;;;;1999.90;999.90;;;;;;;;;;5072004;27;20405;-74
2022/06/30 09:16:08;;;;;;;1999.90;999.90;;;;;;;;;;5064865;27;20900;-74
2022/06/30 09:18:36;;;;;;;1999.90;999.90;;;;;;;;;;5052500;27;20407;-76
2022/06/30 09:21:15;;;;;;;1999.90;999.90;;;;;;;;;;5068803;27;20843;-75
2022/06/30 09:23:43;;;;;;;1999.90;999.90;;;;;;;;;;5041754;27;20390;-74
2022/06/30 09:26:16;;;;;;;1999.90;999.90;;;;;;;;;;5067509;27;20457;-74
2022/06/30 09:28:46;;;;;;;1999.90;999.90;;;;;;;;;;5063135;27;20391;-73
2022/06/30 09:31:35;;;;;;;1999.90;999.90;;;;;;;;;;5062200;27;20976;-75
2022/06/30 09:34:16;;;;;;;1999.90;999.90;;;;;;;;;;5066272;27;20393;-74
2022/06/30 09:36:45;;;;;;;1999.90;999.90;;;;;;;;;;5061344;27;21342;-73
2022/06/30 09:39:15;;;;;;;1999.90;999.90;;;;;;;;;;5067102;27;21262;-72
2022/06/30 09:41:44;;;;;;;1999.90;999.90;;;;;;;;;;5056447;27;20828;-73
2022/06/30 09:44:20;;;;;;;1999.90;999.90;;;;;;;;;;5067879;27;20794;-74
2022/06/30 09:46:55;;;;;;;1999.90;999.90;;;;;;;;;;5058948;28;20419;-74
2022/06/30 09:49:28;;;;;;;1999.90;999.90;;;;;;;;;;5072516;27;20417;-74
2022/06/30 09:51:56;;;;;;;1999.90;999.90;;;;;;;;;;5061543;27;20455;-77
2022/06/30 09:54:24;;;;;;;1999.90;999.90;;;;;;;;;;5056825;27;20433;-74
2022/06/30 09:57:00;;;;;;;1999.90;999.90;;;;;;;;;;5068139;27;20411;-74
2022/06/30 09:59:29;;;;;;;1999.90;999.90;;;;;;;;;;5062884;27;20394;-74
2022/06/30 10:01:58;;;;;;;1999.90;999.90;;;;;;;;;;5062916;27;20395;-73
2022/06/30 10:04:26;;;;;;;1999.90;999.90;;;;;;;;;;5055904;28;20899;-75
2022/06/30 10:06:54;;;;;;;1999.90;999.90;;;;;;;;;;5060171;28;20410;-73
2022/06/30 10:09:27;;;;;;;1999.90;999.90;;;;;;;;;;5062884;27;20426;-74
2022/06/30 10:11:55;;;;;;;1999.90;999.90;;;;;;;;;;5057511;27;20422;-74
2022/06/30 10:14:27;;;;;;;1999.90;999.90;;;;;;;;;;5061395;27;20386;-74
2022/06/30 10:16:56;;;;;;;1999.90;999.90;;;;;;;;;;5067705;27;20401;-72
2022/06/30 10:19:24;;;;;;;1999.90;999.90;;;;;;;;;;5072092;27;20522;-77
2022/06/30 10:21:52;;;;;;;1999.90;999.90;;;;;;;;;;5063407;27;20411;-74
2022/06/30 10:24:21;;;;;;;1999.90;999.90;;;;;;;;;;5067136;27;31080;-74
2022/06/30 10:29:35;;;;;;;1999.90;999.90;;;;;;;;;;5063313;27;20415;-74
2022/06/30 10:32:07;;;;;;;1999.90;999.90;;;;;;;;;;5044766;27;20909;-74
2022/06/30 10:34:37;;;;;;;1999.90;999.90;;;;;;;;;;5057922;27;20448;-74
2022/06/30 10:37:08;;;;;;;1999.90;999.90;;;;;;;;;;5038200;27;21439;-71
2022/06/30 10:39:42;;;;;;;1999.90;999.90;;;;;;;;;;5056978;27;20439;-74
2022/06/30 10:42:10;;;;;;;1999.90;999.90;;;;;;;;;;5064547;27;20405;-75
2022/06/30 10:44:38;;;;;;;1999.90;999.90;;;;;;;;;;5059327;27;20485;-75
2022/06/30 10:47:08;;;;;;;1999.90;999.90;;;;;;;;;;5067548;27;20811;-74
2022/06/30 10:49:52;;;;;;;1999.90;999.90;;;;;;;;;;5063636;27;20399;-74
2022/06/30 10:52:21;;;;;;;1999.90;999.90;;;;;;;;;;5055550;27;20395;-74
2022/06/30 10:54:49;;;;;;;1999.90;999.90;;;;;;;;;;5059863;27;20813;-74
2022/06/30 10:57:17;;;;;;;1999.90;999.90;;;;;;;;;;5063928;27;20401;-74
2022/06/30 10:59:44;;;;;;;1999.90;999.90;;;;;;;;;;5061171;27;20839;-77
2022/06/30 11:02:25;;;;;;;1999.90;999.90;;;;;;;;;;5060174;27;20923;-74
2022/06/30 11:05:13;;;;;;;1999.90;999.90;;;;;;;;;;5062093;27;21825;-74
2022/06/30 11:07:41;;;;;;;1999.90;999.90;;;;;;;;;;5067181;27;20511;-74
2022/06/30 11:10:18;;;;;;;1999.90;999.90;;;;;;;;;;5070643;27;20395;-74
2022/06/30 11:12:54;;;;;;;1999.90;999.90;;;;;;;;;;5063535;27;20755;-75
2022/06/30 11:15:21;;;;;;;1999.90;999.90;;;;;;;;;;5063452;27;21230;-75
2022/06/30 11:17:52;;;;;;;1999.90;999.90;;;;;;;;;;5062030;27;20501;-75
2022/06/30 11:20:20;;;;;;;1999.90;999.90;;;;;;;;;;5062786;27;20406;-74
2022/06/30 11:22:48;;;;;;;1999.90;999.90;;;;;;;;;;5064778;27;20415;-74
2022/06/30 11:27:58;;;;;;;1999.90;999.90;;;;;;;;;;5060600;27;21774;-75
2022/06/30 11:30:29;;;;;;;1999.90;999.90;;;;;;;;;;5062217;27;20397;-74
2022/06/30 11:32:58;;;;;;;1999.90;999.90;;;;;;;;;;5064412;27;20397;-74
2022/06/30 11:35:26;;;;;;;1999.90;999.90;;;;;;;;;;5044982;27;21326;-76
2022/06/30 11:37:55;;;;;;;1999.90;999.90;;;;;;;;;;5063922;27;20440;-74
2022/06/30 11:40:23;;;;;;;1999.90;999.90;;;;;;;;;;5052151;27;20378;-77
2022/06/30 11:42:53;;;;;;;1999.90;999.90;;;;;;;;;;5067460;27;20448;-74
2022/06/30 11:45:23;;;;;;;1999.90;999.90;;;;;;;;;;5054761;27;20402;-76
2022/06/30 11:47:54;;;;;;;1999.90;999.90;;;;;;;;;;5051571;27;20427;-74
2022/06/30 11:50:23;;;;;;;1999.90;999.90;;;;;;;;;;5057215;27;20385;-75
2022/06/30 11:52:52;;;;;;;1999.90;999.90;;;;;;;;;;5067025;27;20417;-75
2022/06/30 11:55:20;;;;;;;1999.90;999.90;;;;;;;;;;5060546;27;20417;-74
2022/06/30 11:57:48;;;;;;;1999.90;999.90;;;;;;;;;;5060616;27;20415;-75
2022/06/30 12:00:18;;;;;;;1999.90;999.90;;;;;;;;;;5070918;27;20411;-73
2022/06/30 12:02:46;;;;;;;1999.90;999.90;;;;;;;;;;5059763;27;20422;-74
2022/06/30 12:05:15;;;;;;;1999.90;999.90;;;;;;;;;;5059772;27;20505;-74
2022/06/30 12:07:45;;;;;;;1999.90;999.90;;;;;;;;;;5041980;27;20406;-75
2022/06/30 12:10:14;;;;;;;1999.90;999.90;;;;;;;;;;5055133;27;20397;-75
2022/06/30 12:12:42;;;;;;;1999.90;999.90;;;;;;;;;;5058120;27;20397;-74
2022/06/30 12:15:13;;;;;;;1999.90;999.90;;;;;;;;;;5068525;27;20435;-75
2022/06/30 12:17:42;;;;;;;1999.90;999.90;;;;;;;;;;5063922;27;20503;-74
2022/06/30 12:20:10;;;;;;;1999.90;999.90;;;;;;;;;;5058897;27;20418;-74
2022/06/30 12:22:40;;;;;;;1999.90;999.90;;;;;;;;;;5058597;27;20407;-73
2022/06/30 12:25:10;;;;;;;1999.90;999.90;;;;;;;;;;5061146;27;20391;-74
2022/06/30 12:27:39;;;;;;;1999.90;999.90;;;;;;;;;;5056420;27;20504;-73
2022/06/30 12:30:10;;;;;;;1999.90;999.90;;;;;;;;;;5060348;27;20407;-75
2022/06/30 12:32:38;;;;;;;1999.90;999.90;;;;;;;;;;5057790;28;20407;-77
2022/06/30 12:35:07;;;;;;;1999.90;999.90;;;;;;;;;;5057297;28;20395;-74
2022/06/30 12:37:36;;;;;;;1999.90;999.90;;;;;;;;;;5057826;27;22289;-75
2022/06/30 12:40:05;;;;;;;1999.90;999.90;;;;;;;;;;5075631;27;20518;-75
2022/06/30 12:42:41;;;;;;;1999.90;999.90;;;;;;;;;;5070041;27;20427;-74
2022/06/30 12:45:34;;;;;;;1999.90;999.90;;;;;;;;;;5075422;27;20504;-74
2022/06/30 12:48:02;;;;;;;1999.90;999.90;;;;;;;;;;5060160;27;20399;-75
2022/06/30 12:50:31;;;;;;;1999.90;999.90;;;;;;;;;;5061585;27;20426;-74
2022/06/30 12:53:14;;;;;;;1999.90;999.90;;;;;;;;;;5056622;28;20395;-73
2022/06/30 12:55:55;;;;;;;1999.90;999.90;;;;;;;;;;5059321;27;20430;-75
2022/06/30 12:58:24;;;;;;;1999.90;999.90;;;;;;;;;;5056936;28;20403;-74
2022/06/30 13:00:56;;;;;;;1999.90;999.90;;;;;;;;;;5055714;27;20422;-75
2022/06/30 13:03:24;;;;;;;1999.90;999.90;;;;;;;;;;5055975;27;20407;-74
2022/06/30 13:05:52;;;;;;;1999.90;999.90;;;;;;;;;;5055452;27;21134;-73
2022/06/30 13:08:19;;;;;;;1999.90;999.90;;;;;;;;;;5061992;27;20455;-74
2022/06/30 13:11:05;;;;;;;1999.90;999.90;;;;;;;;;;5062090;27;20409;-75
2022/06/30 13:13:35;;;;;;;1999.90;999.90;;;;;;;;;;5053099;28;20405;-75
2022/06/30 13:16:03;;;;;;;1999.90;999.90;;;;;;;;;;5057986;28;20387;-74
2022/06/30 13:18:30;;;;;;;1999.90;999.90;;;;;;;;;;5063507;28;20425;-74
2022/06/30 13:20:58;;;;;;;1999.90;999.90;;;;;;;;;;5060533;27;20747;-75
2022/06/30 13:23:26;;;;;;;1999.90;999.90;;;;;;;;;;5061128;27;20423;-75
2022/06/30 13:25:54;;;;;;;1999.90;999.90;;;;;;;;;;5056677;27;20418;-76
2022/06/30 13:28:21;;;;;;;1999.90;999.90;;;;;;;;;;5060049;27;20421;-74
2022/06/30 13:30:50;;;;;;;1999.90;999.90;;;;;;;;;;5060718;27;20600;-75
2022/06/30 13:33:18;;;;;;;1999.90;999.90;;;;;;;;;;5057981;27;20463;-75
2022/06/30 13:35:46;;;;;;;1999.90;999.90;;;;;;;;;;5053594;27;20391;-75
2022/06/30 13:38:14;;;;;;;1999.90;999.90;;;;;;;;;;5058465;27;20405;-75
2022/06/30 13:40:41;;;;;;;1999.90;999.90;;;;;;;;;;5058526;27;20386;-74
2022/06/30 13:43:09;;;;;;;1999.90;999.90;;;;;;;;;;5036682;27;20407;-75
2022/06/30 13:45:37;;;;;;;1999.90;999.90;;;;;;;;;;5051456;27;20840;-74
2022/06/30 13:48:06;;;;;;;1999.90;999.90;;;;;;;;;;5057790;27;20398;-74
2022/06/30 13:50:34;;;;;;;1999.90;999.90;;;;;;;;;;5059258;27;20383;-75
2022/06/30 13:53:02;;;;;;;1999.90;999.90;;;;;;;;;;5051488;27;20421;-74
2022/06/30 13:55:30;;;;;;;1999.90;999.90;;;;;;;;;;5053909;27;21336;-74
2022/06/30 13:57:58;;;;;;;1999.90;999.90;;;;;;;;;;5053623;27;20464;-74
2022/06/30 14:00:26;;;;;;;1999.90;999.90;;;;;;;;;;5057100;27;20389;-75
2022/06/30 14:02:54;;;;;;;1999.90;999.90;;;;;;;;;;5057796;22;20983;-75
2022/06/30 14:05:24;;;;;;;1999.90;999.90;;;;;;;;;;5031987;27;20428;-74
2022/06/30 14:07:52;;;;;;;1999.90;999.90;;;;;;;;;;5031768;27;20420;-74
2022/06/30 14:10:20;;;;;;;1999.90;999.90;;;;;;;;;;5026732;27;20407;-74
2022/06/30 14:12:48;;;;;;;1999.90;999.90;;;;;;;;;;5019250;27;20479;-75